sensor_id;sensor_type;location;lat;lon;timestamp;temperature;humidity
11025;DHT22;22890;51.820;8.682;2022-09-09T00:00:15;15.30;99.90
11025;DHT22;22890;51.820;8.682;2022-09-09T00:02:49;15.30;99.90
11025;DHT22;22890;51.820;8.682;2022-09-09T00:05:31;15.40;99.90
11025;DHT22;22890;51.820;8.682;2022-09-09T00:08:02;15.20;99.90
11025;DHT22;22890;51.820;8.682;2022-09-09T00:10:37;15.20;99.90
11025;DHT22;22890;51.820;8.682;2022-09-09T00:13:34;15.20;99.90
11025;DHT22;22890;51.820;8.682;2022-09-09T00:16:27;15.20;99.90
11025;DHT22;22890;51.820;8.682;2022-09-09T00:21:35;15.10;99.90
11025;DHT22;22890;51.820;8.682;2022-09-09T00:24:26;15.10;99.90
11025;DHT22;22890;51.820;8.682;2022-09-09T00:27:04;15.00;99.90
11025;DHT22;22890;51.820;8.682;2022-09-09T00:29:44;15.00;99.90
11025;DHT22;22890;51.820;8.682;2022-09-09T00:32:14;15.00;99.90
11025;DHT22;22890;51.820;8.682;2022-09-09T00:35:12;15.00;99.90
11025;DHT22;22890;51.820;8.682;2022-09-09T00:37:42;15.00;99.90
11025;DHT22;22890;51.820;8.682;2022-09-09T00:40:22;15.00;99.90
11025;DHT22;22890;51.820;8.682;2022-09-09T00:43:40;14.90;99.90
11025;DHT22;22890;51.820;8.682;2022-09-09T00:54:28;15.00;99.90
11025;DHT22;22890;51.820;8.682;2022-09-09T00:57:13;15.00;99.90
11025;DHT22;22890;51.820;8.682;2022-09-09T00:59:48;15.00;99.90
11025;DHT22;22890;51.820;8.682;2022-09-09T01:02:27;15.00;99.90
11025;DHT22;22890;51.820;8.682;2022-09-09T01:05:00;14.90;99.90
11025;DHT22;22890;51.820;8.682;2022-09-09T01:07:28;14.90;99.90
11025;DHT22;22890;51.820;8.682;2022-09-09T01:09:57;15.10;99.90
11025;DHT22;22890;51.820;8.682;2022-09-09T01:12:38;14.90;99.90
11025;DHT22;22890;51.820;8.682;2022-09-09T01:15:11;14.90;99.90
11025;DHT22;22890;51.820;8.682;2022-09-09T01:20:22;14.90;99.90
11025;DHT22;22890;51.820;8.682;2022-09-09T01:28:22;14.90;99.90
11025;DHT22;22890;51.820;8.682;2022-09-09T01:30:51;14.90;99.90
11025;DHT22;22890;51.820;8.682;2022-09-09T01:33:19;13.30;99.90
11025;DHT22;22890;51.820;8.682;2022-09-09T01:36:09;14.90;99.90
11025;DHT22;22890;51.820;8.682;2022-09-09T01:38:36;14.90;99.90
11025;DHT22;22890;51.820;8.682;2022-09-09T01:41:03;14.90;99.90
11025;DHT22;22890;51.820;8.682;2022-09-09T01:43:30;14.90;99.90
11025;DHT22;22890;51.820;8.682;2022-09-09T01:46:00;15.00;99.90
11025;DHT22;22890;51.820;8.682;2022-09-09T01:48:28;14.80;99.90
11025;DHT22;22890;51.820;8.682;2022-09-09T01:50:55;14.80;99.90
11025;DHT22;22890;51.820;8.682;2022-09-09T01:53:22;14.80;99.90
11025;DHT22;22890;51.820;8.682;2022-09-09T01:56:11;14.70;99.90
11025;DHT22;22890;51.820;8.682;2022-09-09T01:59:02;14.70;99.90
11025;DHT22;22890;51.820;8.682;2022-09-09T02:04:36;14.60;99.90
11025;DHT22;22890;51.820;8.682;2022-09-09T02:07:06;14.60;99.90
11025;DHT22;22890;51.820;8.682;2022-09-09T02:09:36;14.60;99.90
11025;DHT22;22890;51.820;8.682;2022-09-09T02:12:17;14.60;99.90
11025;DHT22;22890;51.820;8.682;2022-09-09T02:14:51;14.60;99.90
11025;DHT22;22890;51.820;8.682;2022-09-09T02:17:25;14.60;99.90
11025;DHT22;22890;51.820;8.682;2022-09-09T02:19:59;14.70;99.90
11025;DHT22;22890;51.820;8.682;2022-09-09T02:22:28;14.50;99.90
11025;DHT22;22890;51.820;8.682;2022-09-09T02:24:59;14.50;99.90
11025;DHT22;22890;51.820;8.682;2022-09-09T02:27:26;14.50;99.90
11025;DHT22;22890;51.820;8.682;2022-09-09T02:29:55;14.50;99.90
11025;DHT22;22890;51.820;8.682;2022-09-09T02:32:24;14.50;99.90
11025;DHT22;22890;51.820;8.682;2022-09-09T02:34:57;14.50;99.90
11025;DHT22;22890;51.820;8.682;2022-09-09T02:37:29;14.60;99.90
11025;DHT22;22890;51.820;8.682;2022-09-09T02:39:58;14.60;99.90
11025;DHT22;22890;51.820;8.682;2022-09-09T02:42:25;14.60;99.90
11025;DHT22;22890;51.820;8.682;2022-09-09T02:44:51;14.60;99.90
11025;DHT22;22890;51.820;8.682;2022-09-09T02:47:34;14.70;99.90
11025;DHT22;22890;51.820;8.682;2022-09-09T02:53:07;14.70;99.90
11025;DHT22;22890;51.820;8.682;2022-09-09T02:55:46;14.70;99.90
11025;DHT22;22890;51.820;8.682;2022-09-09T02:58:17;14.70;99.90
11025;DHT22;22890;51.820;8.682;2022-09-09T03:00:47;14.70;99.90
11025;DHT22;22890;51.820;8.682;2022-09-09T03:03:16;14.70;99.90
11025;DHT22;22890;51.820;8.682;2022-09-09T03:05:43;14.70;99.90
11025;DHT22;22890;51.820;8.682;2022-09-09T03:08:10;14.70;99.90
11025;DHT22;22890;51.820;8.682;2022-09-09T03:10:36;14.80;99.90
11025;DHT22;22890;51.820;8.682;2022-09-09T03:13:04;14.80;99.90
11025;DHT22;22890;51.820;8.682;2022-09-09T03:15:32;14.80;99.90
11025;DHT22;22890;51.820;8.682;2022-09-09T03:18:00;14.80;99.90
11025;DHT22;22890;51.820;8.682;2022-09-09T03:20:28;14.90;99.90
11025;DHT22;22890;51.820;8.682;2022-09-09T03:22:56;14.90;99.90
11025;DHT22;22890;51.820;8.682;2022-09-09T03:25:23;14.90;99.90
11025;DHT22;22890;51.820;8.682;2022-09-09T03:27:51;14.90;99.90
11025;DHT22;22890;51.820;8.682;2022-09-09T03:30:22;15.00;99.90
11025;DHT22;22890;51.820;8.682;2022-09-09T03:32:48;15.00;99.90
11025;DHT22;22890;51.820;8.682;2022-09-09T03:35:15;15.00;99.90
11025;DHT22;22890;51.820;8.682;2022-09-09T03:37:42;15.00;99.90
11025;DHT22;22890;51.820;8.682;2022-09-09T03:40:09;15.00;99.90
11025;DHT22;22890;51.820;8.682;2022-09-09T03:42:37;15.00;99.90
11025;DHT22;22890;51.820;8.682;2022-09-09T03:45:05;15.00;99.90
11025;DHT22;22890;51.820;8.682;2022-09-09T03:47:32;15.00;99.90
11025;DHT22;22890;51.820;8.682;2022-09-09T03:49:59;15.00;99.90
11025;DHT22;22890;51.820;8.682;2022-09-09T03:52:26;15.00;99.90
11025;DHT22;22890;51.820;8.682;2022-09-09T03:54:53;15.10;99.90
11025;DHT22;22890;51.820;8.682;2022-09-09T03:57:20;15.10;99.90
11025;DHT22;22890;51.820;8.682;2022-09-09T03:59:47;15.00;99.90
11025;DHT22;22890;51.820;8.682;2022-09-09T04:02:14;15.10;99.90
11025;DHT22;22890;51.820;8.682;2022-09-09T04:04:41;15.10;99.90
11025;DHT22;22890;51.820;8.682;2022-09-09T04:07:08;15.30;99.90
11025;DHT22;22890;51.820;8.682;2022-09-09T04:09:35;15.10;99.90
11025;DHT22;22890;51.820;8.682;2022-09-09T04:12:01;15.20;99.90
11025;DHT22;22890;51.820;8.682;2022-09-09T04:14:28;15.20;99.90
11025;DHT22;22890;51.820;8.682;2022-09-09T04:16:55;15.20;99.90
11025;DHT22;22890;51.820;8.682;2022-09-09T04:19:23;15.20;99.90
11025;DHT22;22890;51.820;8.682;2022-09-09T04:21:50;15.20;99.90
11025;DHT22;22890;51.820;8.682;2022-09-09T04:24:18;15.30;99.90
11025;DHT22;22890;51.820;8.682;2022-09-09T04:26:45;15.20;99.90
11025;DHT22;22890;51.820;8.682;2022-09-09T04:29:11;15.20;99.90
11025;DHT22;22890;51.820;8.682;2022-09-09T04:31:38;15.20;99.90
11025;DHT22;22890;51.820;8.682;2022-09-09T04:34:11;15.20;99.90
11025;DHT22;22890;51.820;8.682;2022-09-09T04:36:37;15.10;99.90
11025;DHT22;22890;51.820;8.682;2022-09-09T04:39:05;15.20;99.90
11025;DHT22;22890;51.820;8.682;2022-09-09T04:41:32;15.20;99.90
11025;DHT22;22890;51.820;8.682;2022-09-09T04:43:58;15.30;99.90
11025;DHT22;22890;51.820;8.682;2022-09-09T04:46:27;15.30;99.90
11025;DHT22;22890;51.820;8.682;2022-09-09T04:48:53;15.40;99.90
11025;DHT22;22890;51.820;8.682;2022-09-09T04:51:20;15.40;99.90
11025;DHT22;22890;51.820;8.682;2022-09-09T04:53:47;15.40;99.90
11025;DHT22;22890;51.820;8.682;2022-09-09T04:56:16;15.40;99.90
11025;DHT22;22890;51.820;8.682;2022-09-09T04:58:43;15.40;99.90
11025;DHT22;22890;51.820;8.682;2022-09-09T05:01:13;15.40;99.90
11025;DHT22;22890;51.820;8.682;2022-09-09T05:03:40;15.50;99.90
11025;DHT22;22890;51.820;8.682;2022-09-09T05:06:09;15.50;99.90
11025;DHT22;22890;51.820;8.682;2022-09-09T05:08:37;15.50;99.90
11025;DHT22;22890;51.820;8.682;2022-09-09T05:11:17;15.50;99.90
11025;DHT22;22890;51.820;8.682;2022-09-09T05:13:44;15.40;99.90
11025;DHT22;22890;51.820;8.682;2022-09-09T05:16:12;15.40;99.90
11025;DHT22;22890;51.820;8.682;2022-09-09T05:18:39;15.40;99.90
11025;DHT22;22890;51.820;8.682;2022-09-09T05:21:07;15.40;99.90
11025;DHT22;22890;51.820;8.682;2022-09-09T05:23:34;15.40;99.90
11025;DHT22;22890;51.820;8.682;2022-09-09T05:26:02;15.40;99.90
11025;DHT22;22890;51.820;8.682;2022-09-09T05:28:29;15.50;99.90
11025;DHT22;22890;51.820;8.682;2022-09-09T05:30:58;15.50;99.90
11025;DHT22;22890;51.820;8.682;2022-09-09T05:33:25;15.50;99.90
11025;DHT22;22890;51.820;8.682;2022-09-09T05:38:29;15.70;99.90
11025;DHT22;22890;51.820;8.682;2022-09-09T05:40:56;15.80;99.90
11025;DHT22;22890;51.820;8.682;2022-09-09T05:43:23;15.80;99.90
11025;DHT22;22890;51.820;8.682;2022-09-09T05:48:36;15.90;99.90
11025;DHT22;22890;51.820;8.682;2022-09-09T05:51:05;16.00;99.90
11025;DHT22;22890;51.820;8.682;2022-09-09T05:53:33;16.00;99.90
11025;DHT22;22890;51.820;8.682;2022-09-09T05:56:12;16.20;99.90
11025;DHT22;22890;51.820;8.682;2022-09-09T05:58:40;16.30;99.90
11025;DHT22;22890;51.820;8.682;2022-09-09T06:01:13;16.30;99.90
11025;DHT22;22890;51.820;8.682;2022-09-09T06:03:42;16.30;99.90
11025;DHT22;22890;51.820;8.682;2022-09-09T06:06:12;16.40;99.90
11025;DHT22;22890;51.820;8.682;2022-09-09T06:08:40;16.40;99.90
11025;DHT22;22890;51.820;8.682;2022-09-09T06:11:12;16.40;99.90
11025;DHT22;22890;51.820;8.682;2022-09-09T06:13:40;16.50;99.90
11025;DHT22;22890;51.820;8.682;2022-09-09T06:16:14;16.60;99.90
11025;DHT22;22890;51.820;8.682;2022-09-09T06:18:42;16.40;99.90
11025;DHT22;22890;51.820;8.682;2022-09-09T06:21:17;16.50;99.90
11025;DHT22;22890;51.820;8.682;2022-09-09T06:23:44;16.60;99.90
11025;DHT22;22890;51.820;8.682;2022-09-09T06:28:39;16.60;99.90
11025;DHT22;22890;51.820;8.682;2022-09-09T06:31:08;16.70;99.90
11025;DHT22;22890;51.820;8.682;2022-09-09T06:33:39;16.60;99.90
11025;DHT22;22890;51.820;8.682;2022-09-09T06:36:13;16.70;99.90
11025;DHT22;22890;51.820;8.682;2022-09-09T06:38:42;16.70;99.90
11025;DHT22;22890;51.820;8.682;2022-09-09T06:41:10;16.70;99.90
11025;DHT22;22890;51.820;8.682;2022-09-09T06:43:37;16.80;99.90
11025;DHT22;22890;51.820;8.682;2022-09-09T06:46:09;16.80;99.90
11025;DHT22;22890;51.820;8.682;2022-09-09T06:48:36;16.90;99.90
11025;DHT22;22890;51.820;8.682;2022-09-09T06:53:38;16.90;99.90
11025;DHT22;22890;51.820;8.682;2022-09-09T06:58:43;17.00;99.90
11025;DHT22;22890;51.820;8.682;2022-09-09T07:01:15;17.00;99.90
11025;DHT22;22890;51.820;8.682;2022-09-09T07:03:46;17.10;99.90
11025;DHT22;22890;51.820;8.682;2022-09-09T07:06:16;17.00;99.90
11025;DHT22;22890;51.820;8.682;2022-09-09T07:08:57;17.10;99.90
11025;DHT22;22890;51.820;8.682;2022-09-09T07:11:27;17.10;99.90
11025;DHT22;22890;51.820;8.682;2022-09-09T07:13:56;17.20;99.90
11025;DHT22;22890;51.820;8.682;2022-09-09T07:16:24;17.20;99.90
11025;DHT22;22890;51.820;8.682;2022-09-09T07:18:52;17.30;99.90
11025;DHT22;22890;51.820;8.682;2022-09-09T07:21:19;17.30;99.90
11025;DHT22;22890;51.820;8.682;2022-09-09T07:23:47;17.30;99.90
11025;DHT22;22890;51.820;8.682;2022-09-09T07:26:16;17.30;99.90
11025;DHT22;22890;51.820;8.682;2022-09-09T07:28:43;17.30;99.90
11025;DHT22;22890;51.820;8.682;2022-09-09T07:31:24;17.50;99.90
11025;DHT22;22890;51.820;8.682;2022-09-09T07:33:52;17.40;99.90
11025;DHT22;22890;51.820;8.682;2022-09-09T07:36:25;17.50;99.90
11025;DHT22;22890;51.820;8.682;2022-09-09T07:39:01;17.50;99.90
11025;DHT22;22890;51.820;8.682;2022-09-09T07:41:32;17.60;99.90
11025;DHT22;22890;51.820;8.682;2022-09-09T07:44:08;17.60;99.90
11025;DHT22;22890;51.820;8.682;2022-09-09T07:46:35;17.70;99.90
11025;DHT22;22890;51.820;8.682;2022-09-09T07:49:02;17.80;99.90
11025;DHT22;22890;51.820;8.682;2022-09-09T07:51:32;17.80;99.90
11025;DHT22;22890;51.820;8.682;2022-09-09T07:54:01;17.90;99.90
11025;DHT22;22890;51.820;8.682;2022-09-09T07:56:30;17.90;99.90
11025;DHT22;22890;51.820;8.682;2022-09-09T07:58:59;17.90;99.90
11025;DHT22;22890;51.820;8.682;2022-09-09T08:01:30;18.00;99.90
11025;DHT22;22890;51.820;8.682;2022-09-09T08:04:04;18.10;99.90
11025;DHT22;22890;51.820;8.682;2022-09-09T08:06:37;18.10;99.90
11025;DHT22;22890;51.820;8.682;2022-09-09T08:09:05;18.20;99.90
11025;DHT22;22890;51.820;8.682;2022-09-09T08:11:32;18.20;99.90
11025;DHT22;22890;51.820;8.682;2022-09-09T08:14:05;18.20;99.90
11025;DHT22;22890;51.820;8.682;2022-09-09T08:16:34;18.30;99.90
11025;DHT22;22890;51.820;8.682;2022-09-09T08:19:03;18.30;99.90
11025;DHT22;22890;51.820;8.682;2022-09-09T08:21:31;18.30;99.90
11025;DHT22;22890;51.820;8.682;2022-09-09T08:24:00;18.20;99.90
11025;DHT22;22890;51.820;8.682;2022-09-09T08:26:29;18.10;99.90
11025;DHT22;22890;51.820;8.682;2022-09-09T08:28:58;18.00;99.90
11025;DHT22;22890;51.820;8.682;2022-09-09T08:31:27;18.00;99.90
11025;DHT22;22890;51.820;8.682;2022-09-09T08:33:57;18.00;99.90
11025;DHT22;22890;51.820;8.682;2022-09-09T08:36:28;17.80;99.90
11025;DHT22;22890;51.820;8.682;2022-09-09T08:38:57;17.80;99.90
11025;DHT22;22890;51.820;8.682;2022-09-09T08:41:56;17.70;99.90
11025;DHT22;22890;51.820;8.682;2022-09-09T08:47:23;17.70;99.90
11025;DHT22;22890;51.820;8.682;2022-09-09T08:52:21;17.80;99.90
11025;DHT22;22890;51.820;8.682;2022-09-09T08:54:50;17.90;99.90
11025;DHT22;22890;51.820;8.682;2022-09-09T08:57:22;18.00;99.90
11025;DHT22;22890;51.820;8.682;2022-09-09T08:59:54;18.10;99.90
11025;DHT22;22890;51.820;8.682;2022-09-09T09:02:44;18.20;99.90
11025;DHT22;22890;51.820;8.682;2022-09-09T09:08:26;18.50;99.90
11025;DHT22;22890;51.820;8.682;2022-09-09T09:10:56;18.60;99.90
11025;DHT22;22890;51.820;8.682;2022-09-09T09:13:39;18.80;99.90
11025;DHT22;22890;51.820;8.682;2022-09-09T09:16:38;18.80;99.90
11025;DHT22;22890;51.820;8.682;2022-09-09T09:19:13;18.90;99.90
11025;DHT22;22890;51.820;8.682;2022-09-09T09:21:50;18.90;99.90
11025;DHT22;22890;51.820;8.682;2022-09-09T09:24:20;18.90;99.90
11025;DHT22;22890;51.820;8.682;2022-09-09T09:26:47;18.80;99.90
11025;DHT22;22890;51.820;8.682;2022-09-09T09:29:17;18.90;99.90
11025;DHT22;22890;51.820;8.682;2022-09-09T09:31:59;18.90;99.90
11025;DHT22;22890;51.820;8.682;2022-09-09T09:34:28;18.90;99.90
11025;DHT22;22890;51.820;8.682;2022-09-09T09:36:59;18.80;99.90
11025;DHT22;22890;51.820;8.682;2022-09-09T09:39:31;18.90;99.90
11025;DHT22;22890;51.820;8.682;2022-09-09T09:42:25;18.80;99.90
11025;DHT22;22890;51.820;8.682;2022-09-09T09:44:51;18.60;99.90
11025;DHT22;22890;51.820;8.682;2022-09-09T09:47:20;18.60;99.90
11025;DHT22;22890;51.820;8.682;2022-09-09T09:49:57;18.30;99.90
11025;DHT22;22890;51.820;8.682;2022-09-09T09:52:31;18.30;99.90
11025;DHT22;22890;51.820;8.682;2022-09-09T09:54:58;18.40;99.90
11025;DHT22;22890;51.820;8.682;2022-09-09T09:57:33;18.40;99.90
11025;DHT22;22890;51.820;8.682;2022-09-09T10:00:13;18.40;99.90
11025;DHT22;22890;51.820;8.682;2022-09-09T10:02:42;18.40;99.90
11025;DHT22;22890;51.820;8.682;2022-09-09T10:05:14;18.40;99.90
11025;DHT22;22890;51.820;8.682;2022-09-09T10:07:41;18.50;99.90
11025;DHT22;22890;51.820;8.682;2022-09-09T10:10:37;18.60;99.90
11025;DHT22;22890;51.820;8.682;2022-09-09T10:13:36;18.50;99.90
11025;DHT22;22890;51.820;8.682;2022-09-09T10:19:31;18.40;99.90
11025;DHT22;22890;51.820;8.682;2022-09-09T10:35:39;18.80;99.90
11025;DHT22;22890;51.820;8.682;2022-09-09T10:38:14;18.90;99.90
11025;DHT22;22890;51.820;8.682;2022-09-09T10:41:00;19.00;99.90
11025;DHT22;22890;51.820;8.682;2022-09-09T10:49:41;20.40;99.90
11025;DHT22;22890;51.820;8.682;2022-09-09T10:57:38;19.40;99.90
11025;DHT22;22890;51.820;8.682;2022-09-09T11:00:23;19.50;99.90
11025;DHT22;22890;51.820;8.682;2022-09-09T11:02:55;19.50;99.90
11025;DHT22;22890;51.820;8.682;2022-09-09T11:05:27;19.60;99.90
11025;DHT22;22890;51.820;8.682;2022-09-09T11:08:14;19.60;99.90
11025;DHT22;22890;51.820;8.682;2022-09-09T11:10:51;19.70;99.90
11025;DHT22;22890;51.820;8.682;2022-09-09T11:15:58;19.80;99.90
11025;DHT22;22890;51.820;8.682;2022-09-09T11:18:29;19.90;99.90
11025;DHT22;22890;51.820;8.682;2022-09-09T11:21:01;19.80;99.90
11025;DHT22;22890;51.820;8.682;2022-09-09T11:23:42;19.80;99.90
11025;DHT22;22890;51.820;8.682;2022-09-09T11:26:18;19.90;99.90
11025;DHT22;22890;51.820;8.682;2022-09-09T11:31:46;20.00;99.90
11025;DHT22;22890;51.820;8.682;2022-09-09T11:34:20;20.00;99.90
11025;DHT22;22890;51.820;8.682;2022-09-09T11:40:07;20.10;99.90
11025;DHT22;22890;51.820;8.682;2022-09-09T11:42:36;20.10;99.90
11025;DHT22;22890;51.820;8.682;2022-09-09T11:47:37;20.10;99.90
11025;DHT22;22890;51.820;8.682;2022-09-09T11:52:47;19.90;99.90
11025;DHT22;22890;51.820;8.682;2022-09-09T11:55:28;19.90;99.90
11025;DHT22;22890;51.820;8.682;2022-09-09T11:58:16;21.30;99.90
11025;DHT22;22890;51.820;8.682;2022-09-09T12:00:45;20.00;99.90
11025;DHT22;22890;51.820;8.682;2022-09-09T12:03:42;20.50;99.90
11025;DHT22;22890;51.820;8.682;2022-09-09T12:06:20;20.10;99.90
11025;DHT22;22890;51.820;8.682;2022-09-09T12:08:57;20.30;99.90
11025;DHT22;22890;51.820;8.682;2022-09-09T12:11:26;20.40;99.90
11025;DHT22;22890;51.820;8.682;2022-09-09T12:13:58;20.50;99.90
11025;DHT22;22890;51.820;8.682;2022-09-09T12:16:35;20.60;99.90
11025;DHT22;22890;51.820;8.682;2022-09-09T12:19:23;20.80;99.90
11025;DHT22;22890;51.820;8.682;2022-09-09T12:22:08;20.80;99.90
11025;DHT22;22890;51.820;8.682;2022-09-09T12:27:45;21.00;99.90
11025;DHT22;22890;51.820;8.682;2022-09-09T12:30:15;21.20;99.90
11025;DHT22;22890;51.820;8.682;2022-09-09T12:32:41;22.30;99.90
11025;DHT22;22890;51.820;8.682;2022-09-09T12:35:11;21.10;99.90
11025;DHT22;22890;51.820;8.682;2022-09-09T12:37:52;20.90;99.90
11025;DHT22;22890;51.820;8.682;2022-09-09T12:40:24;21.10;99.90
11025;DHT22;22890;51.820;8.682;2022-09-09T12:42:51;21.00;99.90
11025;DHT22;22890;51.820;8.682;2022-09-09T12:45:20;21.00;99.90
11025;DHT22;22890;51.820;8.682;2022-09-09T12:47:51;21.10;99.90
11025;DHT22;22890;51.820;8.682;2022-09-09T12:54:35;21.20;99.90
11025;DHT22;22890;51.820;8.682;2022-09-09T12:57:03;21.30;99.90
11025;DHT22;22890;51.820;8.682;2022-09-09T12:59:37;21.20;99.90
11025;DHT22;22890;51.820;8.682;2022-09-09T13:02:22;21.20;99.90
11025;DHT22;22890;51.820;8.682;2022-09-09T13:04:49;21.10;99.90
11025;DHT22;22890;51.820;8.682;2022-09-09T13:07:19;21.10;99.90
11025;DHT22;22890;51.820;8.682;2022-09-09T13:09:47;21.10;99.90
11025;DHT22;22890;51.820;8.682;2022-09-09T13:12:18;21.00;99.90
11025;DHT22;22890;51.820;8.682;2022-09-09T13:14:48;21.10;99.90
11025;DHT22;22890;51.820;8.682;2022-09-09T13:17:23;21.10;99.90
11025;DHT22;22890;51.820;8.682;2022-09-09T13:19:51;21.10;99.90
11025;DHT22;22890;51.820;8.682;2022-09-09T13:22:20;21.00;99.90
11025;DHT22;22890;51.820;8.682;2022-09-09T13:24:47;21.10;99.90
11025;DHT22;22890;51.820;8.682;2022-09-09T13:27:32;21.10;99.90
11025;DHT22;22890;51.820;8.682;2022-09-09T13:30:00;21.10;99.90
11025;DHT22;22890;51.820;8.682;2022-09-09T13:32:27;21.20;99.90
11025;DHT22;22890;51.820;8.682;2022-09-09T13:37:31;21.30;99.90
11025;DHT22;22890;51.820;8.682;2022-09-09T13:40:00;21.30;99.90
11025;DHT22;22890;51.820;8.682;2022-09-09T13:42:30;21.30;99.90
11025;DHT22;22890;51.820;8.682;2022-09-09T13:44:58;21.30;99.90
11025;DHT22;22890;51.820;8.682;2022-09-09T13:47:32;21.40;99.90
11025;DHT22;22890;51.820;8.682;2022-09-09T13:50:09;21.30;99.90
11025;DHT22;22890;51.820;8.682;2022-09-09T13:52:36;21.30;99.90
11025;DHT22;22890;51.820;8.682;2022-09-09T13:55:02;21.20;99.90
11025;DHT22;22890;51.820;8.682;2022-09-09T13:57:29;21.20;99.90
11025;DHT22;22890;51.820;8.682;2022-09-09T13:59:55;21.30;99.90
11025;DHT22;22890;51.820;8.682;2022-09-09T14:02:31;21.30;99.90
11025;DHT22;22890;51.820;8.682;2022-09-09T14:04:59;21.40;99.90
11025;DHT22;22890;51.820;8.682;2022-09-09T14:07:25;21.50;99.90
11025;DHT22;22890;51.820;8.682;2022-09-09T14:09:52;21.50;99.90
11025;DHT22;22890;51.820;8.682;2022-09-09T14:12:19;21.50;99.90
11025;DHT22;22890;51.820;8.682;2022-09-09T14:17:13;21.60;99.90
11025;DHT22;22890;51.820;8.682;2022-09-09T14:22:09;21.70;99.90
11025;DHT22;22890;51.820;8.682;2022-09-09T14:24:35;21.80;99.90
11025;DHT22;22890;51.820;8.682;2022-09-09T14:29:29;21.80;99.90
11025;DHT22;22890;51.820;8.682;2022-09-09T14:31:55;21.70;99.90
11025;DHT22;22890;51.820;8.682;2022-09-09T14:34:22;21.40;99.90
11025;DHT22;22890;51.820;8.682;2022-09-09T14:36:48;21.60;99.90
11025;DHT22;22890;51.820;8.682;2022-09-09T14:39:15;21.50;99.90
11025;DHT22;22890;51.820;8.682;2022-09-09T14:44:09;21.40;99.90
11025;DHT22;22890;51.820;8.682;2022-09-09T14:46:36;21.50;99.90
11025;DHT22;22890;51.820;8.682;2022-09-09T14:53:59;21.50;99.90
11025;DHT22;22890;51.820;8.682;2022-09-09T14:56:28;21.50;99.90
11025;DHT22;22890;51.820;8.682;2022-09-09T14:58:57;21.50;99.90
11025;DHT22;22890;51.820;8.682;2022-09-09T15:01:25;21.50;99.90
11025;DHT22;22890;51.820;8.682;2022-09-09T15:03:58;21.50;99.90
11025;DHT22;22890;51.820;8.682;2022-09-09T15:06:27;21.50;99.90
11025;DHT22;22890;51.820;8.682;2022-09-09T15:08:53;21.50;99.90
11025;DHT22;22890;51.820;8.682;2022-09-09T15:11:20;21.50;99.90
11025;DHT22;22890;51.820;8.682;2022-09-09T15:13:47;21.50;99.90
11025;DHT22;22890;51.820;8.682;2022-09-09T15:16:19;21.50;99.90
11025;DHT22;22890;51.820;8.682;2022-09-09T15:18:50;21.50;99.90
11025;DHT22;22890;51.820;8.682;2022-09-09T15:21:19;21.40;99.90
11025;DHT22;22890;51.820;8.682;2022-09-09T15:26:14;21.30;99.90
11025;DHT22;22890;51.820;8.682;2022-09-09T15:28:43;21.30;99.90
11025;DHT22;22890;51.820;8.682;2022-09-09T15:33:37;21.30;99.90
11025;DHT22;22890;51.820;8.682;2022-09-09T15:36:24;21.30;99.90
11025;DHT22;22890;51.820;8.682;2022-09-09T15:38:51;21.30;99.90
11025;DHT22;22890;51.820;8.682;2022-09-09T15:41:20;21.30;99.90
11025;DHT22;22890;51.820;8.682;2022-09-09T15:43:49;21.20;99.90
11025;DHT22;22890;51.820;8.682;2022-09-09T15:46:35;21.20;99.90
11025;DHT22;22890;51.820;8.682;2022-09-09T15:49:09;21.10;99.90
11025;DHT22;22890;51.820;8.682;2022-09-09T15:51:39;21.10;99.90
11025;DHT22;22890;51.820;8.682;2022-09-09T15:54:11;20.90;99.90
11025;DHT22;22890;51.820;8.682;2022-09-09T15:56:38;20.90;99.90
11025;DHT22;22890;51.820;8.682;2022-09-09T15:59:05;20.80;99.90
11025;DHT22;22890;51.820;8.682;2022-09-09T16:04:00;20.70;99.90
11025;DHT22;22890;51.820;8.682;2022-09-09T16:06:28;20.60;99.90
11025;DHT22;22890;51.820;8.682;2022-09-09T16:08:57;20.60;99.90
11025;DHT22;22890;51.820;8.682;2022-09-09T16:11:26;20.50;99.90
11025;DHT22;22890;51.820;8.682;2022-09-09T16:13:54;20.40;99.90
11025;DHT22;22890;51.820;8.682;2022-09-09T16:16:24;20.30;99.90
11025;DHT22;22890;51.820;8.682;2022-09-09T16:18:54;20.20;99.90
11025;DHT22;22890;51.820;8.682;2022-09-09T16:21:24;19.90;99.90
11025;DHT22;22890;51.820;8.682;2022-09-09T16:23:52;19.90;99.90
11025;DHT22;22890;51.820;8.682;2022-09-09T16:26:20;19.90;99.90
11025;DHT22;22890;51.820;8.682;2022-09-09T16:28:47;19.90;99.90
11025;DHT22;22890;51.820;8.682;2022-09-09T16:31:18;19.50;99.90
11025;DHT22;22890;51.820;8.682;2022-09-09T16:33:46;19.60;99.90
11025;DHT22;22890;51.820;8.682;2022-09-09T16:36:17;19.50;99.90
11025;DHT22;22890;51.820;8.682;2022-09-09T16:38:44;19.50;99.90
11025;DHT22;22890;51.820;8.682;2022-09-09T16:41:12;19.50;99.90
11025;DHT22;22890;51.820;8.682;2022-09-09T16:43:40;19.50;99.90
11025;DHT22;22890;51.820;8.682;2022-09-09T16:46:17;19.50;99.90
11025;DHT22;22890;51.820;8.682;2022-09-09T16:48:45;19.20;99.90
11025;DHT22;22890;51.820;8.682;2022-09-09T16:53:41;19.10;99.90
11025;DHT22;22890;51.820;8.682;2022-09-09T16:56:14;18.80;99.90
11025;DHT22;22890;51.820;8.682;2022-09-09T17:03:41;18.40;99.90
11025;DHT22;22890;51.820;8.682;2022-09-09T17:06:10;18.50;99.90
11025;DHT22;22890;51.820;8.682;2022-09-09T17:08:37;18.40;99.90
11025;DHT22;22890;51.820;8.682;2022-09-09T17:13:31;18.30;99.90
11025;DHT22;22890;51.820;8.682;2022-09-09T17:23:22;18.20;99.90
11025;DHT22;22890;51.820;8.682;2022-09-09T17:25:59;18.30;99.90
11025;DHT22;22890;51.820;8.682;2022-09-09T17:28:28;18.30;99.90
11025;DHT22;22890;51.820;8.682;2022-09-09T17:30:58;18.40;99.90
11025;DHT22;22890;51.820;8.682;2022-09-09T17:33:28;18.40;99.90
11025;DHT22;22890;51.820;8.682;2022-09-09T17:36:01;18.40;99.90
11025;DHT22;22890;51.820;8.682;2022-09-09T17:38:29;18.40;99.90
11025;DHT22;22890;51.820;8.682;2022-09-09T17:41:35;18.20;99.90
11025;DHT22;22890;51.820;8.682;2022-09-09T17:44:03;18.30;99.90
11025;DHT22;22890;51.820;8.682;2022-09-09T17:46:35;18.30;99.90
11025;DHT22;22890;51.820;8.682;2022-09-09T17:49:05;18.00;99.90
11025;DHT22;22890;51.820;8.682;2022-09-09T17:51:33;17.90;99.90
11025;DHT22;22890;51.820;8.682;2022-09-09T17:54:03;18.10;99.90
11025;DHT22;22890;51.820;8.682;2022-09-09T17:56:31;17.90;99.90
11025;DHT22;22890;51.820;8.682;2022-09-09T17:59:00;17.80;99.90
11025;DHT22;22890;51.820;8.682;2022-09-09T18:01:30;17.90;99.90
11025;DHT22;22890;51.820;8.682;2022-09-09T18:03:59;17.80;99.90
11025;DHT22;22890;51.820;8.682;2022-09-09T18:06:33;17.80;99.90
11025;DHT22;22890;51.820;8.682;2022-09-09T18:09:03;17.60;99.90
11025;DHT22;22890;51.820;8.682;2022-09-09T18:11:33;17.80;99.90
11025;DHT22;22890;51.820;8.682;2022-09-09T18:14:01;17.80;99.90